createdAt,value
2022-10-19T00:01:31.804Z,1.00
2022-10-19T00:03:59.970Z,1.00
2022-10-19T00:06:28.168Z,1.00
2022-10-19T00:08:55.463Z,1.00
2022-10-19T00:11:23.579Z,1.00
2022-10-19T00:13:50.361Z,1.00
2022-10-19T00:16:17.016Z,1.00
2022-10-19T00:18:43.746Z,1.00
2022-10-19T00:21:10.818Z,1.00
2022-10-19T00:23:37.406Z,1.00
2022-10-19T00:26:04.041Z,1.00
2022-10-19T00:28:30.700Z,1.00
2022-10-19T00:30:57.295Z,1.00
2022-10-19T00:33:23.852Z,51.70
2022-10-19T00:35:50.639Z,99.90
2022-10-19T00:38:17.720Z,99.90
2022-10-19T00:40:44.345Z,99.90
2022-10-19T00:43:17.908Z,99.90
2022-10-19T00:45:44.450Z,99.90
2022-10-19T00:48:11.278Z,29.40
2022-10-19T00:50:37.949Z,1.20
2022-10-19T00:53:04.503Z,1.00
2022-10-19T00:55:31.181Z,1.00
2022-10-19T00:57:57.709Z,1.00
2022-10-19T01:00:24.255Z,48.80
2022-10-19T01:02:50.838Z,99.90
2022-10-19T01:05:17.456Z,91.90
2022-10-19T01:07:43.993Z,63.90
2022-10-19T01:10:10.611Z,26.20
2022-10-19T01:12:37.099Z,2.20
2022-10-19T01:15:20.333Z,7.10
2022-10-19T01:17:59.093Z,2.00
2022-10-19T01:20:28.626Z,6.80
2022-10-19T01:22:55.293Z,15.50
2022-10-19T01:25:22.952Z,26.60
2022-10-19T01:28:08.198Z,1.00
2022-10-19T01:30:54.464Z,1.00
2022-10-19T01:33:30.043Z,1.00
2022-10-19T01:36:00.536Z,1.00
2022-10-19T01:38:30.184Z,1.00
2022-10-19T01:40:56.695Z,1.00
2022-10-19T01:43:26.034Z,1.00
2022-10-19T01:45:54.087Z,1.00
2022-10-19T01:48:30.771Z,1.00
2022-10-19T01:50:57.885Z,1.00
2022-10-19T01:53:24.433Z,1.00
2022-10-19T01:55:51.171Z,1.00
2022-10-19T01:58:19.037Z,1.00
2022-10-19T02:00:46.074Z,1.00
2022-10-19T02:03:12.671Z,1.00
2022-10-19T02:05:39.244Z,1.00
2022-10-19T02:08:06.477Z,1.00
2022-10-19T02:10:33.025Z,1.00
2022-10-19T02:12:59.551Z,1.00
2022-10-19T02:15:26.559Z,1.00
2022-10-19T02:17:55.185Z,1.00
2022-10-19T02:20:21.736Z,1.00
2022-10-19T02:22:48.264Z,1.00
2022-10-19T02:25:14.900Z,1.00
2022-10-19T02:27:44.517Z,1.00
2022-10-19T02:30:11.551Z,1.00
2022-10-19T02:32:38.078Z,1.00
2022-10-19T02:35:04.837Z,1.00
2022-10-19T02:37:31.427Z,1.00
2022-10-19T02:39:57.994Z,1.00
2022-10-19T02:42:43.024Z,1.00
2022-10-19T02:45:18.143Z,1.00
2022-10-19T02:47:46.231Z,1.00
2022-10-19T02:50:12.791Z,1.00
2022-10-19T02:52:39.832Z,1.00
2022-10-19T02:55:06.533Z,1.00
2022-10-19T02:57:33.348Z,1.00
2022-10-19T03:00:00.163Z,1.00
2022-10-19T03:02:26.749Z,1.00
2022-10-19T03:04:53.301Z,1.00
2022-10-19T03:07:20.555Z,1.00
2022-10-19T03:09:47.164Z,1.00
2022-10-19T03:12:13.711Z,1.00
2022-10-19T03:14:40.359Z,1.00
2022-10-19T03:17:06.895Z,1.00
2022-10-19T03:19:34.086Z,1.00
2022-10-19T03:22:00.612Z,1.00
2022-10-19T03:24:27.229Z,1.00
2022-10-19T03:26:53.761Z,1.00
2022-10-19T03:29:20.303Z,1.00
2022-10-19T03:31:46.834Z,1.00
2022-10-19T03:34:13.382Z,1.00
2022-10-19T03:36:40.100Z,1.00
2022-10-19T03:39:07.715Z,1.00
2022-10-19T03:41:35.124Z,1.00
2022-10-19T03:44:01.700Z,1.00
2022-10-19T03:46:28.260Z,1.00
2022-10-19T03:48:54.829Z,1.00
2022-10-19T03:51:22.355Z,99.90
2022-10-19T03:53:51.874Z,1.40
2022-10-19T03:56:19.228Z,1.00
2022-10-19T03:58:46.116Z,1.00
2022-10-19T04:01:13.580Z,1.00
2022-10-19T04:03:40.109Z,1.00
2022-10-19T04:06:07.453Z,1.00
2022-10-19T04:08:34.099Z,99.90
2022-10-19T04:11:01.306Z,99.90
2022-10-19T04:13:28.027Z,1.00
2022-10-19T04:15:54.613Z,99.90
2022-10-19T04:18:22.208Z,99.90
2022-10-19T04:20:48.832Z,1.00
2022-10-19T04:23:18.410Z,1.00
2022-10-19T04:25:44.946Z,1.00
2022-10-19T04:28:11.480Z,99.90
2022-10-19T04:30:38.034Z,99.90
2022-10-19T04:33:04.551Z,1.00
2022-10-19T04:35:31.100Z,1.00
2022-10-19T04:37:58.532Z,1.00
2022-10-19T04:40:25.379Z,1.00
2022-10-19T04:42:51.908Z,1.00
2022-10-19T04:45:18.549Z,1.00
2022-10-19T04:47:45.070Z,1.00
2022-10-19T04:50:11.619Z,1.00
2022-10-19T04:52:39.325Z,1.00
2022-10-19T04:55:05.943Z,1.00
2022-10-19T04:57:32.851Z,1.00
2022-10-19T04:59:59.712Z,1.00
2022-10-19T05:02:26.244Z,1.00
2022-10-19T05:04:52.784Z,99.90
2022-10-19T05:07:19.323Z,99.90
2022-10-19T05:09:45.857Z,99.90
2022-10-19T05:12:12.391Z,99.90
2022-10-19T05:14:41.931Z,99.90
2022-10-19T05:17:09.568Z,99.90
2022-10-19T05:19:38.548Z,99.90
2022-10-19T05:22:05.115Z,99.90
2022-10-19T05:24:32.535Z,99.90
2022-10-19T05:26:59.077Z,99.90
2022-10-19T05:29:25.711Z,99.90
2022-10-19T05:31:52.243Z,99.90
2022-10-19T05:34:18.788Z,99.90
2022-10-19T05:36:45.330Z,99.90
2022-10-19T05:39:12.774Z,99.90
2022-10-19T05:41:39.327Z,99.90
2022-10-19T05:44:05.896Z,99.90
2022-10-19T05:46:32.610Z,99.90
2022-10-19T05:48:59.197Z,91.00
2022-10-19T05:51:26.038Z,1.00
2022-10-19T05:53:53.199Z,1.00
2022-10-19T05:56:20.724Z,1.00
2022-10-19T05:58:47.463Z,1.00
2022-10-19T06:01:14.149Z,1.00
2022-10-19T06:03:40.744Z,1.00
2022-10-19T06:06:07.601Z,1.00
2022-10-19T06:08:34.187Z,1.00
2022-10-19T06:11:10.846Z,1.00
2022-10-19T06:13:37.439Z,1.00
2022-10-19T06:16:04.246Z,1.00
2022-10-19T06:18:30.776Z,1.00
2022-10-19T06:21:00.886Z,1.00
2022-10-19T06:23:27.417Z,1.00
2022-10-19T06:25:55.010Z,1.00
2022-10-19T06:28:21.532Z,1.00
2022-10-19T06:30:48.171Z,1.00
2022-10-19T06:33:14.764Z,1.00
2022-10-19T06:35:43.007Z,1.00
2022-10-19T06:38:09.759Z,1.00
2022-10-19T06:40:36.299Z,1.00
2022-10-19T06:43:02.824Z,1.00
2022-10-19T06:45:34.874Z,99.90
2022-10-19T06:48:05.103Z,1.00
2022-10-19T06:50:34.177Z,99.90
2022-10-19T06:53:00.706Z,99.90
2022-10-19T06:55:27.279Z,99.90
2022-10-19T06:57:53.914Z,99.90
2022-10-19T07:00:20.543Z,99.90
2022-10-19T07:02:47.081Z,1.00
2022-10-19T07:05:13.641Z,12.80
2022-10-19T07:07:40.198Z,1.00
2022-10-19T07:10:06.925Z,99.90
2022-10-19T07:12:33.469Z,99.90
2022-10-19T07:15:00.081Z,99.90
2022-10-19T07:17:26.629Z,99.90
2022-10-19T07:19:53.229Z,1.00
2022-10-19T07:22:23.234Z,1.00
2022-10-19T07:24:54.586Z,99.90
2022-10-19T07:27:21.128Z,99.90
2022-10-19T07:29:47.645Z,99.90
2022-10-19T07:32:14.203Z,99.90
2022-10-19T07:34:40.739Z,99.90
2022-10-19T07:37:07.331Z,99.90
2022-10-19T07:39:33.866Z,98.40
2022-10-19T07:42:00.416Z,1.00
2022-10-19T07:44:26.943Z,1.00
2022-10-19T07:46:53.478Z,1.00
2022-10-19T07:49:20.666Z,1.00
2022-10-19T07:51:47.312Z,1.00
2022-10-19T07:54:13.849Z,99.90
2022-10-19T07:56:41.037Z,99.90
2022-10-19T07:59:07.588Z,93.40
2022-10-19T08:01:40.817Z,77.00
2022-10-19T08:06:54.036Z,1.00
2022-10-19T08:09:47.429Z,1.00
2022-10-19T08:12:07.212Z,1.00
2022-10-19T08:14:33.828Z,1.00
2022-10-19T08:17:00.573Z,99.90
2022-10-19T08:19:27.120Z,99.90
2022-10-19T08:21:53.712Z,99.90
2022-10-19T08:24:20.371Z,99.90
2022-10-19T08:26:46.932Z,99.90
2022-10-19T08:29:14.149Z,99.90
2022-10-19T08:31:40.997Z,99.90
2022-10-19T08:34:07.534Z,1.00
2022-10-19T08:36:35.572Z,1.00
2022-10-19T08:39:03.057Z,1.00
2022-10-19T08:41:37.420Z,1.00
2022-10-19T08:44:16.232Z,99.90
2022-10-19T08:47:02.615Z,99.90
2022-10-19T08:49:30.226Z,99.90
2022-10-19T08:52:01.046Z,99.90
2022-10-19T08:54:32.816Z,99.90
2022-10-19T08:57:04.159Z,99.90
2022-10-19T08:59:40.796Z,99.90
2022-10-19T09:02:21.754Z,99.90
2022-10-19T09:04:49.495Z,99.90
2022-10-19T09:07:16.009Z,99.90
2022-10-19T09:09:43.268Z,99.90
2022-10-19T09:12:10.160Z,99.90
2022-10-19T09:14:51.899Z,98.80
2022-10-19T09:17:18.452Z,49.10
2022-10-19T09:19:44.984Z,1.00
2022-10-19T09:22:21.740Z,1.00
2022-10-19T09:24:49.335Z,1.00
2022-10-19T09:27:17.648Z,1.00
2022-10-19T09:29:44.598Z,1.00
2022-10-19T09:32:38.114Z,1.00
2022-10-19T09:35:13.747Z,1.00
2022-10-19T09:37:40.436Z,1.00
2022-10-19T09:40:07.276Z,1.00
2022-10-19T09:42:34.687Z,1.00
2022-10-19T09:45:02.066Z,1.00
2022-10-19T09:47:33.197Z,1.00
2022-10-19T09:50:06.939Z,1.00
2022-10-19T09:52:37.942Z,1.00
2022-10-19T09:55:18.184Z,1.00
2022-10-19T09:57:48.805Z,1.00
2022-10-19T10:00:19.110Z,1.00
2022-10-19T10:03:03.820Z,1.00
2022-10-19T10:05:37.425Z,1.00
2022-10-19T10:08:04.526Z,1.00
2022-10-19T10:10:34.677Z,1.00
2022-10-19T10:13:01.221Z,1.00
2022-10-19T10:15:28.279Z,1.00
2022-10-19T10:17:55.424Z,1.00
2022-10-19T10:20:27.834Z,1.00
2022-10-19T10:22:57.205Z,1.00
2022-10-19T10:25:24.714Z,1.00
2022-10-19T10:27:58.745Z,1.00
2022-10-19T10:30:25.354Z,1.00
2022-10-19T10:32:52.941Z,99.90
2022-10-19T10:35:20.099Z,99.90
2022-10-19T10:37:46.845Z,99.90
2022-10-19T10:40:30.199Z,99.90
2022-10-19T10:42:58.073Z,99.90
2022-10-19T10:45:24.681Z,99.90
2022-10-19T10:47:51.451Z,99.90
2022-10-19T10:50:18.180Z,99.90
2022-10-19T10:52:55.525Z,99.90
2022-10-19T10:55:22.055Z,99.90
2022-10-19T10:57:49.813Z,99.90
2022-10-19T11:00:17.268Z,99.90
2022-10-19T11:02:56.189Z,99.90
2022-10-19T11:05:23.949Z,99.90
2022-10-19T11:07:53.002Z,99.90
2022-10-19T11:10:21.747Z,99.90
2022-10-19T11:12:53.939Z,99.90
2022-10-19T11:15:56.117Z,99.90
2022-10-19T11:18:24.961Z,99.90
2022-10-19T11:21:02.307Z,99.90
2022-10-19T11:23:48.018Z,99.90
2022-10-19T11:26:44.017Z,99.90
2022-10-19T11:29:16.840Z,99.90
2022-10-19T11:31:51.017Z,99.90
2022-10-19T11:34:18.052Z,99.90
2022-10-19T11:36:57.352Z,99.90
2022-10-19T11:39:30.934Z,99.90
2022-10-19T11:42:00.464Z,99.90
2022-10-19T11:44:46.770Z,99.90
2022-10-19T11:47:22.132Z,99.90
2022-10-19T11:50:15.017Z,99.90
2022-10-19T11:53:03.069Z,99.90
2022-10-19T11:55:37.706Z,99.90
2022-10-19T11:58:11.450Z,99.90
2022-10-19T12:00:40.728Z,99.90
2022-10-19T12:03:26.093Z,99.90
2022-10-19T12:06:12.649Z,99.90
2022-10-19T12:08:58.023Z,99.90
2022-10-19T12:11:30.683Z,99.90
2022-10-19T12:13:59.483Z,99.90
2022-10-19T12:16:33.483Z,99.90
2022-10-19T12:19:00.991Z,99.90
2022-10-19T12:21:31.324Z,99.90
2022-10-19T12:23:58.146Z,99.90
2022-10-19T12:26:24.718Z,99.90
2022-10-19T12:28:55.964Z,99.90
2022-10-19T12:31:23.241Z,99.90
2022-10-19T12:33:49.806Z,99.90
2022-10-19T12:36:33.626Z,99.90
2022-10-19T12:39:06.161Z,99.90
2022-10-19T12:41:36.409Z,99.90
2022-10-19T12:44:09.093Z,99.90
2022-10-19T12:46:35.616Z,99.90
2022-10-19T12:49:28.304Z,99.90
2022-10-19T12:51:55.347Z,99.90
2022-10-19T12:54:22.317Z,99.90
2022-10-19T12:56:49.651Z,99.90
2022-10-19T12:59:32.633Z,99.90
2022-10-19T13:01:59.385Z,99.90
2022-10-19T13:04:30.104Z,99.90
2022-10-19T13:06:56.638Z,99.90
2022-10-19T13:09:33.473Z,99.90
2022-10-19T13:12:19.372Z,99.90
2022-10-19T13:14:56.970Z,99.90
2022-10-19T13:17:46.345Z,99.90
2022-10-19T13:20:13.730Z,99.90
2022-10-19T13:22:46.990Z,99.90
2022-10-19T13:25:16.521Z,99.90
2022-10-19T13:27:43.542Z,99.90
2022-10-19T13:30:37.055Z,99.90
2022-10-19T13:33:22.553Z,99.90
2022-10-19T13:35:49.104Z,99.90
2022-10-19T13:38:15.653Z,99.90
2022-10-19T13:40:48.252Z,99.90
2022-10-19T13:43:28.222Z,99.90
2022-10-19T13:45:54.793Z,99.90
2022-10-19T13:48:24.979Z,99.90
2022-10-19T13:50:54.258Z,99.90
2022-10-19T13:53:36.016Z,99.90
2022-10-19T13:56:24.338Z,99.90
2022-10-19T13:59:10.987Z,99.90
2022-10-19T14:01:43.532Z,99.90
2022-10-19T14:04:30.533Z,99.90
2022-10-19T14:07:01.268Z,99.90
2022-10-19T14:09:51.268Z,99.90
2022-10-19T14:12:20.813Z,99.90
2022-10-19T14:14:47.358Z,99.90
2022-10-19T14:17:14.933Z,99.90
2022-10-19T14:19:42.410Z,99.90
2022-10-19T14:22:38.420Z,99.90
2022-10-19T14:25:10.873Z,99.90
2022-10-19T14:27:37.637Z,99.90
2022-10-19T14:30:04.786Z,99.90
2022-10-19T14:32:32.320Z,99.90
2022-10-19T14:35:06.352Z,99.90
2022-10-19T14:37:33.280Z,99.90
2022-10-19T14:40:00.185Z,99.90
2022-10-19T14:42:35.582Z,99.90
2022-10-19T14:45:02.402Z,99.90
2022-10-19T14:47:30.357Z,99.90
2022-10-19T14:49:56.901Z,99.90
2022-10-19T14:54:59.736Z,99.90
2022-10-19T14:57:26.376Z,99.90
2022-10-19T14:59:53.704Z,99.90
2022-10-19T15:02:24.801Z,99.90
2022-10-19T15:04:51.456Z,99.90
2022-10-19T15:07:23.409Z,99.90
2022-10-19T15:09:51.989Z,99.90
2022-10-19T15:12:19.409Z,99.90
2022-10-19T15:14:46.112Z,99.90
2022-10-19T15:17:22.650Z,99.90
2022-10-19T15:19:49.202Z,99.90
2022-10-19T15:22:21.813Z,99.90
2022-10-19T15:24:55.740Z,99.90
2022-10-19T15:27:22.804Z,99.90
2022-10-19T15:29:59.734Z,99.90
2022-10-19T15:32:29.918Z,99.90
2022-10-19T15:34:56.530Z,99.90
2022-10-19T15:37:23.203Z,99.90
2022-10-19T15:39:50.167Z,99.90
2022-10-19T15:42:22.815Z,99.90
2022-10-19T15:44:49.503Z,99.90
2022-10-19T15:47:16.190Z,99.90
2022-10-19T15:49:42.713Z,99.90
2022-10-19T15:52:19.099Z,99.90
2022-10-19T15:54:52.137Z,99.90
2022-10-19T15:57:35.214Z,99.90
2022-10-19T16:00:06.258Z,1.00
2022-10-19T16:02:32.785Z,1.00
2022-10-19T16:04:59.396Z,1.00
2022-10-19T16:07:26.889Z,1.00
2022-10-19T16:09:54.252Z,1.00
2022-10-19T16:12:21.439Z,1.00
2022-10-19T16:14:47.989Z,1.00
2022-10-19T16:17:14.609Z,1.00
2022-10-19T16:19:41.552Z,1.00
2022-10-19T16:22:08.080Z,1.00
2022-10-19T16:24:34.633Z,1.00
2022-10-19T16:27:01.269Z,1.00
2022-10-19T16:29:29.003Z,1.00
2022-10-19T16:31:56.099Z,1.00
2022-10-19T16:34:22.758Z,1.00
2022-10-19T16:36:49.311Z,1.00
2022-10-19T16:39:15.915Z,1.00
2022-10-19T16:41:43.625Z,1.00
2022-10-19T16:44:10.876Z,1.00
2022-10-19T16:46:37.413Z,1.00
2022-10-19T16:49:03.964Z,1.00
2022-10-19T16:51:37.098Z,1.00
2022-10-19T16:54:03.982Z,1.00
2022-10-19T16:56:30.711Z,1.00
2022-10-19T16:58:58.317Z,1.00
2022-10-19T17:01:24.959Z,1.00
2022-10-19T17:03:51.676Z,1.00
2022-10-19T17:06:18.612Z,1.00
2022-10-19T17:09:23.327Z,1.00
2022-10-19T17:11:33.006Z,1.00
2022-10-19T17:14:00.592Z,1.00
2022-10-19T17:16:27.582Z,1.00
2022-10-19T17:18:54.507Z,1.00
2022-10-19T17:21:21.801Z,1.00
2022-10-19T17:23:50.869Z,1.00
2022-10-19T17:26:17.686Z,1.00
2022-10-19T17:28:44.234Z,1.00
2022-10-19T17:31:14.126Z,1.00
2022-10-19T17:33:40.863Z,1.00
2022-10-19T17:36:08.307Z,1.00
2022-10-19T17:38:35.097Z,1.00
2022-10-19T17:41:02.786Z,1.00
2022-10-19T17:43:29.372Z,1.00
2022-10-19T17:45:59.846Z,1.00
2022-10-19T17:48:26.408Z,1.00
2022-10-19T17:50:56.869Z,1.00
2022-10-19T17:53:23.423Z,1.00
2022-10-19T17:55:49.968Z,1.00
2022-10-19T17:58:16.584Z,1.00
2022-10-19T18:00:43.241Z,1.00
2022-10-19T18:03:09.888Z,1.00
2022-10-19T18:05:36.571Z,1.00
2022-10-19T18:08:03.124Z,1.00
2022-10-19T18:10:29.756Z,1.00
2022-10-19T18:12:56.360Z,1.00
2022-10-19T18:15:23.500Z,1.00
2022-10-19T18:17:50.040Z,1.00
2022-10-19T18:20:16.849Z,1.00
2022-10-19T18:25:21.574Z,1.00
2022-10-19T18:27:57.351Z,1.00
2022-10-19T18:30:23.892Z,1.00
2022-10-19T18:32:50.430Z,1.00
2022-10-19T18:35:16.985Z,1.00
2022-10-19T18:37:43.789Z,1.00
2022-10-19T18:40:11.842Z,1.00
2022-10-19T18:42:38.596Z,1.00
2022-10-19T18:45:05.273Z,1.00
2022-10-19T18:47:31.790Z,1.00
2022-10-19T18:49:58.394Z,1.00
2022-10-19T18:52:24.923Z,1.00
2022-10-19T18:54:51.464Z,1.00
2022-10-19T18:57:17.992Z,1.00
2022-10-19T18:59:44.557Z,1.00
2022-10-19T19:02:17.292Z,1.00
2022-10-19T19:04:57.724Z,1.00
2022-10-19T19:07:24.423Z,1.00
2022-10-19T19:09:51.304Z,1.00
2022-10-19T19:12:17.835Z,1.00
2022-10-19T19:14:45.128Z,1.00
2022-10-19T19:17:11.672Z,1.00
2022-10-19T19:19:38.229Z,1.00
2022-10-19T19:22:08.780Z,1.00
2022-10-19T19:24:35.707Z,1.00
2022-10-19T19:27:02.260Z,1.00
2022-10-19T19:29:30.350Z,1.00
2022-10-19T19:31:57.035Z,1.00
2022-10-19T19:34:23.586Z,1.00
2022-10-19T19:36:50.156Z,1.00
2022-10-19T19:39:18.553Z,1.00
2022-10-19T19:41:45.140Z,1.00
2022-10-19T19:44:11.709Z,1.00
2022-10-19T19:46:38.248Z,1.00
2022-10-19T19:49:04.840Z,1.00
2022-10-19T19:51:31.744Z,1.00
2022-10-19T19:53:58.441Z,1.00
2022-10-19T19:56:24.988Z,1.00
2022-10-19T19:58:58.165Z,1.00
2022-10-19T20:01:25.132Z,1.00
2022-10-19T20:03:51.789Z,1.00
2022-10-19T20:06:20.847Z,9.50
2022-10-19T20:08:50.254Z,38.40
2022-10-19T20:11:17.572Z,65.70
2022-10-19T20:13:44.974Z,99.90
2022-10-19T20:16:13.049Z,99.90
2022-10-19T20:18:40.225Z,99.90
2022-10-19T20:21:06.808Z,99.90
2022-10-19T20:23:33.443Z,99.90
2022-10-19T20:26:00.046Z,99.90
2022-10-19T20:28:26.698Z,99.90
2022-10-19T20:31:03.183Z,99.90
2022-10-19T20:33:30.476Z,99.90
2022-10-19T20:35:57.014Z,99.90
2022-10-19T20:38:23.618Z,99.90
2022-10-19T20:40:50.149Z,99.90
2022-10-19T20:43:17.541Z,99.90
2022-10-19T20:45:44.088Z,99.90
2022-10-19T20:48:10.651Z,99.90
2022-10-19T20:50:37.180Z,99.90
2022-10-19T20:53:03.715Z,99.90
2022-10-19T20:55:30.267Z,99.90
2022-10-19T20:57:56.805Z,99.90
2022-10-19T21:00:23.348Z,95.90
2022-10-19T21:02:49.909Z,99.90
2022-10-19T21:05:16.592Z,99.90
2022-10-19T21:07:43.223Z,99.90
2022-10-19T21:10:09.777Z,99.90
2022-10-19T21:12:36.634Z,99.90
2022-10-19T21:15:03.970Z,99.90
2022-10-19T21:19:58.035Z,99.90
2022-10-19T21:22:24.566Z,99.90
2022-10-19T21:24:51.115Z,99.90
2022-10-19T21:27:17.680Z,99.90
2022-10-19T21:29:44.227Z,99.90
2022-10-19T21:32:10.761Z,99.90
2022-10-19T21:34:37.338Z,99.90
2022-10-19T21:37:03.987Z,99.90
2022-10-19T21:39:30.597Z,99.90
2022-10-19T21:41:57.904Z,99.90
2022-10-19T21:44:24.511Z,99.90
2022-10-19T21:46:51.071Z,99.90
2022-10-19T21:49:17.724Z,99.90
2022-10-19T21:51:44.979Z,99.90
2022-10-19T21:54:12.375Z,99.90
2022-10-19T21:56:38.913Z,99.90
2022-10-19T21:59:05.460Z,99.90
2022-10-19T22:01:37.220Z,99.90
2022-10-19T22:04:07.235Z,99.90
2022-10-19T22:06:34.479Z,99.90
2022-10-19T22:09:01.484Z,99.90
2022-10-19T22:11:28.090Z,99.90
2022-10-19T22:13:55.311Z,99.90
2022-10-19T22:16:21.935Z,99.90
2022-10-19T22:18:48.548Z,99.90
2022-10-19T22:21:16.292Z,99.90
2022-10-19T22:23:43.033Z,99.90
2022-10-19T22:26:13.447Z,99.90
2022-10-19T22:28:40.056Z,99.90
2022-10-19T22:31:06.628Z,99.90
2022-10-19T22:33:33.911Z,99.90
2022-10-19T22:36:00.740Z,99.90
2022-10-19T22:38:27.451Z,99.90
2022-10-19T22:40:53.985Z,99.90
2022-10-19T22:43:20.568Z,99.90
2022-10-19T22:45:50.101Z,99.90
2022-10-19T22:48:17.301Z,99.90
2022-10-19T22:50:43.926Z,99.90
2022-10-19T22:53:10.557Z,99.90
2022-10-19T22:55:37.104Z,1.00
2022-10-19T22:58:04.203Z,1.00
2022-10-19T23:00:30.933Z,1.00
2022-10-19T23:02:57.481Z,1.00
2022-10-19T23:05:24.012Z,1.00
2022-10-19T23:07:50.578Z,1.00
2022-10-19T23:10:17.187Z,1.00
2022-10-19T23:12:43.711Z,1.00
2022-10-19T23:15:10.364Z,1.00
2022-10-19T23:17:37.383Z,1.00
2022-10-19T23:20:04.437Z,1.00
2022-10-19T23:22:30.963Z,1.00
2022-10-19T23:24:57.535Z,1.00
2022-10-19T23:27:24.065Z,1.00
2022-10-19T23:29:50.617Z,1.00
2022-10-19T23:32:17.153Z,1.00
2022-10-19T23:34:47.438Z,1.00
2022-10-19T23:37:15.005Z,1.00
2022-10-19T23:39:41.616Z,1.00
2022-10-19T23:42:08.165Z,1.00
2022-10-19T23:44:34.714Z,1.00
2022-10-19T23:47:01.251Z,18.40
2022-10-19T23:49:27.806Z,99.90
2022-10-19T23:51:54.359Z,99.90
2022-10-19T23:54:20.909Z,99.90
2022-10-19T23:56:47.440Z,99.90
2022-10-19T23:59:13.985Z,99.90
